Time;durP1;ratioP1;P1;durP2;ratioP2;P2;SDS_P1;SDS_P2;PMS_P1;PMS_P2;Temp;Humidity;BMP_temperature;BMP_pressure;BME280_temperature;BME280_humidity;BME280_pressure;Samples;Min_cycle;Max_cycle;Signal;HPM_P1;HPM_P2
2021/01/07 00:00:26;;;;;;;29.63;15.05;;;;;;;-1.23;100.00;95687.38;1033295;28;20423;-74
2021/01/07 00:00:57;;;;;;;27.20;14.48;;;;;;;-1.24;100.00;95696.94;1033470;28;20023;-74
2021/01/07 00:01:28;;;;;;;30.13;16.38;;;;;;;-1.24;100.00;95689.13;1029323;28;20494;-74
2021/01/07 00:01:59;;;;;;;31.00;16.33;;;;;;;-1.26;100.00;95682.38;1033192;28;20014;-74
2021/01/07 00:02:29;;;;;;;30.00;16.23;;;;;;;-1.17;100.00;95692.97;1029086;28;20066;-74
2021/01/07 00:03:00;;;;;;;27.50;15.82;;;;;;;-1.14;100.00;95692.72;1033129;28;20034;-74
2021/01/07 00:03:38;;;;;;;31.17;16.67;;;;;;;-1.15;100.00;95691.06;1033086;28;20034;-74
2021/01/07 00:04:10;;;;;;;33.58;16.48;;;;;;;-1.17;100.00;95695.56;1033081;28;20022;-73
2021/01/07 00:04:40;;;;;;;30.38;16.33;;;;;;;-1.16;100.00;95699.00;1037282;28;20025;-74
2021/01/07 00:05:11;;;;;;;26.85;14.90;;;;;;;-1.18;100.00;95703.50;1029172;28;20019;-74
2021/01/07 00:05:42;;;;;;;28.95;15.45;;;;;;;-1.19;100.00;95694.00;1025350;29;20061;-75
2021/01/07 00:06:14;;;;;;;27.60;15.68;;;;;;;-1.17;100.00;95698.19;1045498;28;20025;-74
2021/01/07 00:06:45;;;;;;;29.38;15.85;;;;;;;-1.14;100.00;95691.91;1037274;28;20052;-74
2021/01/07 00:07:15;;;;;;;31.40;16.10;;;;;;;-1.16;100.00;95702.44;1033485;28;20023;-75
2021/01/07 00:07:46;;;;;;;29.55;15.75;;;;;;;-1.07;100.00;95695.72;1033369;28;20365;-74
2021/01/07 00:08:17;;;;;;;31.60;16.55;;;;;;;-1.10;100.00;95692.50;1041482;28;20435;-74
2021/01/07 00:08:48;;;;;;;28.17;15.23;;;;;;;-1.11;100.00;95696.91;1029101;28;20116;-74
2021/01/07 00:09:18;;;;;;;29.90;15.85;;;;;;;-1.14;100.00;95691.91;1037235;28;20034;-75
2021/01/07 00:09:49;;;;;;;29.10;15.65;;;;;;;-1.25;100.00;95684.03;1037395;28;20060;-75
2021/01/07 00:10:20;;;;;;;26.08;14.43;;;;;;;-1.29;100.00;95675.59;1024818;28;20046;-74
2021/01/07 00:10:51;;;;;;;30.80;15.57;;;;;;;-1.17;100.00;95686.91;1033105;28;20026;-73
2021/01/07 00:11:21;;;;;;;29.38;16.10;;;;;;;-1.16;100.00;95692.00;1041503;28;20085;-74
2021/01/07 00:11:52;;;;;;;30.17;16.02;;;;;;;-1.28;100.00;95689.47;1041541;28;20020;-74
2021/01/07 00:12:23;;;;;;;30.58;16.15;;;;;;;-1.21;100.00;95698.50;1041195;28;20147;-73
2021/01/07 00:12:54;;;;;;;29.63;15.27;;;;;;;-1.33;100.00;95681.97;1033494;28;20026;-74
2021/01/07 00:13:25;;;;;;;31.02;16.98;;;;;;;-1.17;100.00;95694.72;1033369;28;20030;-74
2021/01/07 00:13:56;;;;;;;29.13;15.68;;;;;;;-1.12;100.00;95686.59;1029170;28;20036;-74
2021/01/07 00:14:26;;;;;;;30.63;16.27;;;;;;;-1.08;100.00;95685.41;1037042;28;20069;-74
2021/01/07 00:14:57;;;;;;;31.48;16.20;;;;;;;-1.05;100.00;95691.22;1025228;29;20027;-74
2021/01/07 00:15:28;;;;;;;28.52;15.57;;;;;;;-1.15;100.00;95678.06;1037448;28;20057;-74
2021/01/07 00:15:59;;;;;;;31.80;16.23;;;;;;;-1.08;100.00;95691.47;1025385;29;20065;-74
2021/01/07 00:16:30;;;;;;;29.27;16.33;;;;;;;-1.08;100.00;95696.69;1033055;28;20014;-73
2021/01/07 00:17:01;;;;;;;30.23;16.10;;;;;;;-1.09;100.00;95697.63;1041487;28;20021;-74
2021/01/07 00:17:31;;;;;;;34.55;16.55;;;;;;;-1.23;100.00;95682.16;1032908;28;20099;-74
2021/01/07 00:18:02;;;;;;;31.35;16.05;;;;;;;-1.16;100.00;95699.81;1033174;28;20030;-75
2021/01/07 00:18:33;;;;;;;30.02;15.25;;;;;;;-1.11;100.00;95699.50;1040926;28;20048;-74
2021/01/07 00:19:04;;;;;;;33.95;16.83;;;;;;;-1.19;100.00;95689.63;1036992;28;20564;-74
2021/01/07 00:19:35;;;;;;;29.48;16.80;;;;;;;-1.17;100.00;95702.53;1033072;28;20026;-74
2021/01/07 00:20:08;;;;;;;29.15;16.25;;;;;;;-1.17;100.00;95692.13;1041235;28;20021;-74
2021/01/07 00:20:38;;;;;;;28.00;14.75;;;;;;;-1.14;100.00;95699.72;1045553;28;20047;-74
2021/01/07 00:21:09;;;;;;;31.65;15.45;;;;;;;-1.11;100.00;95696.06;1033092;28;20033;-74
2021/01/07 00:21:40;;;;;;;28.73;15.55;;;;;;;-1.11;100.00;95698.69;1041270;28;20477;-74
2021/01/07 00:22:11;;;;;;;28.55;15.73;;;;;;;-1.27;100.00;95680.69;1032980;28;20549;-74
2021/01/07 00:22:42;;;;;;;30.92;16.15;;;;;;;-1.20;100.00;95697.53;1037236;28;20057;-74
2021/01/07 00:23:13;;;;;;;29.20;15.75;;;;;;;-1.17;100.00;95692.97;1037167;28;20078;-73
2021/01/07 00:23:43;;;;;;;28.55;15.25;;;;;;;-1.28;100.00;95684.25;1033012;28;20026;-74
2021/01/07 00:24:14;;;;;;;30.95;16.00;;;;;;;-1.21;100.00;95690.69;1025212;29;20547;-74
2021/01/07 00:24:45;;;;;;;29.38;15.35;;;;;;;-1.15;100.00;95692.81;1037090;28;20017;-74
2021/01/07 00:25:15;;;;;;;27.27;15.88;;;;;;;-1.18;100.00;95699.09;1041420;28;20025;-74
2021/01/07 00:25:48;;;;;;;25.92;13.90;;;;;;;-1.23;100.00;95692.56;1029471;28;20061;-74
2021/01/07 00:26:19;;;;;;;29.90;15.00;;;;;;;-1.22;100.00;95689.00;1037477;28;20025;-74
2021/01/07 00:26:50;;;;;;;28.17;14.80;;;;;;;-1.14;100.00;95695.31;1041423;28;20124;-74
2021/01/07 00:27:20;;;;;;;30.02;16.73;;;;;;;-1.18;100.00;95693.06;1025182;29;20073;-74
2021/01/07 00:27:51;;;;;;;28.20;14.90;;;;;;;-1.17;100.00;95692.97;1037384;28;20121;-74
2021/01/07 00:28:23;;;;;;;29.67;16.00;;;;;;;-1.25;100.00;95674.44;1037215;28;20109;-74
2021/01/07 00:28:53;;;;;;;27.85;15.93;;;;;;;-1.11;100.00;95691.69;1037165;28;20041;-74
2021/01/07 00:29:24;;;;;;;29.05;14.77;;;;;;;-1.04;100.00;95695.50;1032975;28;20454;-74
2021/01/07 00:29:55;;;;;;;31.60;16.70;;;;;;;-1.15;100.00;95685.88;1029205;28;20034;-74
2021/01/07 00:30:26;;;;;;;30.48;15.32;;;;;;;-1.17;100.00;95694.72;1033121;28;20022;-74
2021/01/07 00:30:56;;;;;;;30.38;15.48;;;;;;;-1.14;100.00;95691.91;1033098;28;20475;-74
2021/01/07 00:31:27;;;;;;;28.10;15.55;;;;;;;-1.13;100.00;95688.38;1024953;28;20050;-74
2021/01/07 00:31:59;;;;;;;29.88;14.80;;;;;;;-1.09;100.00;95699.41;1033334;28;20573;-74
2021/01/07 00:32:29;;;;;;;26.88;14.45;;;;;;;-1.18;100.00;95680.88;1033217;28;20100;-73
2021/01/07 00:33:00;;;;;;;29.67;14.80;;;;;;;-1.12;100.00;95694.41;1037336;28;20037;-74
2021/01/07 00:33:31;;;;;;;29.25;16.08;;;;;;;-1.11;100.00;95693.47;1033023;28;20025;-73
2021/01/07 00:34:02;;;;;;;26.70;15.15;;;;;;;-1.10;100.00;95697.72;1045459;28;20481;-74
2021/01/07 00:34:33;;;;;;;27.05;14.98;;;;;;;-1.20;100.00;95690.56;1041560;28;20089;-74
2021/01/07 00:35:04;;;;;;;29.77;14.98;;;;;;;-1.13;100.00;95693.56;1037126;28;20026;-74
2021/01/07 00:35:36;;;;;;;27.60;14.88;;;;;;;-1.10;100.00;95698.53;1032774;28;20056;-74
2021/01/07 00:36:07;;;;;;;26.10;15.27;;;;;;;-1.06;100.00;95694.78;1037239;28;20033;-75
2021/01/07 00:36:37;;;;;;;29.33;15.73;;;;;;;-1.05;100.00;95695.63;1037451;28;20362;-74
2021/01/07 00:37:08;;;;;;;28.52;15.25;;;;;;;-1.09;100.00;95700.22;1025233;28;20035;-74
2021/01/07 00:37:39;;;;;;;31.05;16.98;;;;;;;-1.17;100.00;95686.91;1032692;28;20033;-74
2021/01/07 00:38:10;;;;;;;29.73;15.60;;;;;;;-1.06;100.00;95694.78;1029060;28;20114;-74
2021/01/07 00:38:41;;;;;;;32.20;15.48;;;;;;;-1.18;100.00;95685.25;1033250;28;20086;-74
2021/01/07 00:39:12;;;;;;;29.92;15.88;;;;;;;-1.16;100.00;95694.63;1029342;28;20019;-74
2021/01/07 00:39:43;;;;;;;30.10;15.60;;;;;;;-1.18;100.00;95696.50;1033184;28;20034;-74
2021/01/07 00:40:14;;;;;;;29.00;15.57;;;;;;;-1.14;100.00;95697.94;1037343;28;20030;-74
2021/01/07 00:40:45;;;;;;;27.20;15.60;;;;;;;-1.11;100.00;95693.47;1033255;28;20060;-74
2021/01/07 00:41:17;;;;;;;26.65;13.95;;;;;;;-1.12;100.00;95684.81;1045474;28;20021;-74
2021/01/07 00:41:56;;;;;;;28.95;15.88;;;;;;;-1.07;100.00;95693.13;1033021;28;20030;-74
2021/01/07 00:42:26;;;;;;;28.25;15.20;;;;;;;-1.15;100.00;95682.41;1029160;28;20027;-74
2021/01/07 00:42:58;;;;;;;27.20;15.13;;;;;;;-1.22;100.00;95689.84;1033278;28;20049;-74
2021/01/07 00:43:29;;;;;;;28.35;14.70;;;;;;;-1.25;100.00;95681.44;1029092;28;20029;-74
2021/01/07 00:44:01;;;;;;;27.77;15.70;;;;;;;-1.19;100.00;95691.41;1037423;28;20033;-74
2021/01/07 00:44:31;;;;;;;28.83;15.35;;;;;;;-1.12;100.00;95697.81;1037396;28;20049;-74
2021/01/07 00:45:03;;;;;;;28.17;15.50;;;;;;;-1.10;100.00;95703.75;1033182;28;20026;-74
2021/01/07 00:45:34;;;;;;;27.70;15.07;;;;;;;-1.13;100.00;95696.19;1041069;28;20032;-74
2021/01/07 00:46:05;;;;;;;28.65;15.05;;;;;;;-1.09;100.00;95702.81;1037130;28;20021;-74
2021/01/07 00:46:36;;;;;;;27.52;14.70;;;;;;;-1.08;100.00;95701.03;1025268;28;20077;-74
2021/01/07 00:47:06;;;;;;;26.65;14.35;;;;;;;-1.03;100.00;95701.53;1041348;28;20029;-74
2021/01/07 00:47:37;;;;;;;27.92;14.35;;;;;;;-1.06;100.00;95697.41;1037202;28;20494;-74
2021/01/07 00:48:08;;;;;;;28.73;15.38;;;;;;;-1.08;100.00;95701.91;1033192;28;20026;-74
2021/01/07 00:48:39;;;;;;;27.35;14.77;;;;;;;-1.13;100.00;95701.41;1033516;28;20026;-74
2021/01/07 00:49:10;;;;;;;26.52;15.10;;;;;;;-1.06;100.00;95702.59;1025272;29;20023;-74
2021/01/07 00:49:44;;;;;;;24.80;13.13;;;;;;;-1.07;100.00;95698.31;1033331;28;20036;-74
2021/01/07 00:50:15;;;;;;;25.23;14.25;;;;;;;-1.05;100.00;95700.81;1037212;28;20017;-74
2021/01/07 00:50:47;;;;;;;26.60;14.52;;;;;;;-1.08;100.00;95699.28;1029129;28;20486;-74
2021/01/07 00:51:18;;;;;;;28.65;14.98;;;;;;;-1.11;100.00;95701.28;1033330;28;20057;-74
2021/01/07 00:51:49;;;;;;;28.20;14.90;;;;;;;-1.11;100.00;95702.09;1025180;29;20026;-74
2021/01/07 00:52:20;;;;;;;29.25;14.68;;;;;;;-1.12;100.00;95700.44;1036992;28;20022;-73
2021/01/07 00:52:50;;;;;;;27.73;14.43;;;;;;;-1.08;100.00;95701.91;1033091;28;20026;-74
2021/01/07 00:53:21;;;;;;;23.92;13.60;;;;;;;-1.18;100.00;95690.47;1037408;28;20018;-74
2021/01/07 00:53:52;;;;;;;25.77;14.13;;;;;;;-1.26;100.00;95704.03;1037231;28;20092;-74
2021/01/07 00:54:23;;;;;;;24.73;13.52;;;;;;;-1.12;100.00;95710.84;1037504;28;20033;-74
2021/01/07 00:54:54;;;;;;;25.42;13.52;;;;;;;-1.10;100.00;95708.13;1045765;28;20047;-74
2021/01/07 00:55:25;;;;;;;27.33;14.20;;;;;;;-1.22;100.00;95695.06;1033199;28;20069;-74
2021/01/07 00:55:56;;;;;;;25.88;14.35;;;;;;;-1.20;100.00;95689.72;1033070;28;20029;-74
2021/01/07 00:56:27;;;;;;;27.38;15.07;;;;;;;-1.13;100.00;95704.00;1037087;28;20109;-73
2021/01/07 00:56:58;;;;;;;26.75;14.38;;;;;;;-1.10;100.00;95708.97;1033116;28;20454;-74
2021/01/07 00:57:29;;;;;;;25.98;14.13;;;;;;;-1.13;100.00;95688.38;1045535;28;20040;-74
2021/01/07 00:58:02;;;;;;;25.67;14.20;;;;;;;-1.14;100.00;95707.53;1033103;28;20376;-73
2021/01/07 00:58:33;;;;;;;26.20;14.30;;;;;;;-1.08;100.00;95709.72;1033122;28;20069;-73
2021/01/07 00:59:05;;;;;;;27.13;14.52;;;;;;;-1.12;100.00;95700.44;1041294;28;20050;-74
2021/01/07 00:59:38;;;;;;;24.50;13.80;;;;;;;-1.11;100.00;95706.50;1045158;28;20103;-74
2021/01/07 01:00:11;;;;;;;25.20;14.13;;;;;;;-1.12;100.00;95703.03;1037481;28;20434;-74
2021/01/07 01:00:42;;;;;;;24.77;13.27;;;;;;;-1.11;100.00;95704.72;1029177;28;20095;-73
2021/01/07 01:01:12;;;;;;;26.63;13.98;;;;;;;-1.05;100.00;95709.47;1037390;28;20029;-74
2021/01/07 01:01:45;;;;;;;25.42;13.52;;;;;;;-1.18;100.00;95686.09;1041059;28;20017;-74
2021/01/07 01:02:19;;;;;;;23.35;13.15;;;;;;;-1.17;100.00;95682.53;1040834;28;20077;-74
2021/01/07 01:02:49;;;;;;;25.65;13.93;;;;;;;-1.00;100.00;95704.75;1037062;28;20026;-74
2021/01/07 01:03:21;;;;;;;26.02;13.48;;;;;;;-1.06;100.00;95704.38;1028431;28;20039;-73
2021/01/07 01:03:52;;;;;;;24.33;12.85;;;;;;;-1.02;100.00;95706.66;1032866;28;20065;-74
2021/01/07 01:04:23;;;;;;;22.90;13.10;;;;;;;-1.05;100.00;95701.66;1029012;28;20073;-74
2021/01/07 01:04:54;;;;;;;26.08;13.85;;;;;;;-1.03;100.00;95709.34;1032901;28;20026;-74
2021/01/07 01:05:25;;;;;;;25.13;13.15;;;;;;;-1.05;100.00;95706.88;1033459;28;20112;-74
2021/01/07 01:05:56;;;;;;;23.58;13.70;;;;;;;-1.03;100.00;95709.34;1037361;28;20029;-74
2021/01/07 01:06:33;;;;;;;25.50;13.20;;;;;;;-1.23;100.00;95672.56;1037568;28;20032;-73
2021/01/07 01:07:06;;;;;;;21.42;12.43;;;;;;;-1.07;100.00;95708.75;1033161;28;20018;-74
2021/01/07 01:07:36;;;;;;;24.90;13.32;;;;;;;-1.05;100.00;95712.06;1033182;28;20018;-74
2021/01/07 01:08:07;;;;;;;26.13;14.32;;;;;;;-1.10;100.00;95708.97;1037249;28;20041;-74
2021/01/07 01:08:38;;;;;;;25.15;13.32;;;;;;;-1.04;100.00;95708.53;1029109;28;20411;-74
2021/01/07 01:09:11;;;;;;;26.65;13.70;;;;;;;-1.10;100.00;95714.19;1041087;28;20021;-73
2021/01/07 01:09:43;;;;;;;23.50;13.15;;;;;;;-1.03;100.00;95711.97;1037498;28;20060;-74
2021/01/07 01:10:13;;;;;;;23.33;13.40;;;;;;;-1.05;100.00;95711.25;1029333;28;20102;-74
2021/01/07 01:10:45;;;;;;;21.80;13.05;;;;;;;-1.14;100.00;95699.72;1037294;28;20025;-73
2021/01/07 01:11:16;;;;;;;24.35;13.75;;;;;;;-1.00;100.00;95709.97;1033123;28;20018;-74
2021/01/07 01:11:47;;;;;;;23.52;12.73;;;;;;;-1.13;100.00;95704.00;1037117;28;20325;-74
2021/01/07 01:12:18;;;;;;;23.70;13.55;;;;;;;-1.05;100.00;95709.47;1032948;28;20074;-74
2021/01/07 01:12:49;;;;;;;24.02;13.25;;;;;;;-1.05;100.00;95706.88;1029027;28;20069;-74
2021/01/07 01:13:21;;;;;;;22.08;13.07;;;;;;;-1.20;100.00;95689.72;1032984;28;20121;-74
2021/01/07 01:13:52;;;;;;;23.55;13.05;;;;;;;-1.05;100.00;95713.84;1033582;28;20019;-74
2021/01/07 01:14:23;;;;;;;21.88;12.32;;;;;;;-1.10;100.00;95698.53;1029413;28;20134;-74
2021/01/07 01:14:54;;;;;;;21.25;12.40;;;;;;;-1.10;100.00;95695.13;1037085;28;20017;-74
2021/01/07 01:15:25;;;;;;;22.35;12.65;;;;;;;-1.09;100.00;95715.03;1029149;28;20030;-73
2021/01/07 01:15:56;;;;;;;20.35;12.43;;;;;;;-1.11;100.00;95712.53;1037233;28;20014;-74
2021/01/07 01:16:30;;;;;;;20.00;11.82;;;;;;;-1.22;100.00;95691.59;1037382;28;20029;-74
2021/01/07 01:17:00;;;;;;;21.23;11.95;;;;;;;-1.02;100.00;95709.25;1029024;28;20070;-73
2021/01/07 01:17:33;;;;;;;24.20;12.82;;;;;;;-1.04;100.00;95705.94;1037127;28;20123;-74
2021/01/07 01:18:05;;;;;;;20.38;11.73;;;;;;;-1.02;100.00;95709.25;1033291;28;20064;-74
2021/01/07 01:18:37;;;;;;;21.17;11.80;;;;;;;-0.97;100.00;95714.97;1033661;28;20023;-74
2021/01/07 01:19:08;;;;;;;23.08;12.05;;;;;;;-1.00;100.00;95709.97;1033145;28;20026;-73
2021/01/07 01:19:39;;;;;;;20.80;12.07;;;;;;;-1.06;100.00;95704.38;1033111;28;20104;-74
2021/01/07 01:20:11;;;;;;;21.60;11.93;;;;;;;-1.08;100.00;95707.09;1029272;28;20088;-74
2021/01/07 01:20:43;;;;;;;21.65;12.10;;;;;;;-1.13;100.00;95696.19;1037615;28;20025;-74
2021/01/07 01:21:16;;;;;;;20.52;11.77;;;;;;;-1.06;100.00;95710.44;1037271;28;20069;-74
2021/01/07 01:21:55;;;;;;;19.77;11.60;;;;;;;-1.03;100.00;95707.59;1045597;28;20420;-74
2021/01/07 01:22:33;;;;;;;22.13;11.68;;;;;;;-1.11;100.00;95703.88;1033284;28;20246;-74
2021/01/07 01:23:06;;;;;;;31.08;13.65;;;;;;;-1.08;100.00;95712.31;1037879;28;20022;-74
2021/01/07 01:23:38;;;;;;;21.20;11.70;;;;;;;-1.03;100.00;95709.34;1033135;28;20049;-74
2021/01/07 01:24:10;;;;;;;18.83;11.00;;;;;;;-1.03;100.00;95710.22;1025300;29;20159;-74
2021/01/07 01:24:41;;;;;;;20.95;11.57;;;;;;;-0.99;100.00;95713.44;1033082;28;20042;-74
2021/01/07 01:25:13;;;;;;;21.77;12.45;;;;;;;-1.06;100.00;95709.56;1041328;28;20017;-74
2021/01/07 01:25:43;;;;;;;22.77;12.68;;;;;;;-1.12;100.00;95708.25;1025201;29;20023;-73
2021/01/07 01:26:16;;;;;;;20.13;11.95;;;;;;;-1.18;100.00;95693.06;1045261;28;20675;-74
2021/01/07 01:26:53;;;;;;;20.27;12.23;;;;;;;-1.02;100.00;95716.25;1037327;28;20026;-74
2021/01/07 01:27:25;;;;;;;19.48;10.73;;;;;;;-1.54;100.00;95627.03;1037438;28;20045;-74
2021/01/07 01:27:56;;;;;;;20.88;11.45;;;;;;;-0.95;100.00;95713.06;1037210;28;20253;-74
2021/01/07 01:28:27;;;;;;;20.50;11.13;;;;;;;-0.98;100.00;95717.69;1029429;28;20019;-74
2021/01/07 01:28:58;;;;;;;21.83;11.55;;;;;;;-0.99;100.00;95714.25;1037377;28;20021;-74
2021/01/07 01:29:30;;;;;;;21.15;11.65;;;;;;;-0.99;100.00;95711.66;1033118;28;20480;-73
2021/01/07 01:30:04;;;;;;;20.45;11.93;;;;;;;-0.98;100.00;95723.72;1041595;28;20059;-74
2021/01/07 01:30:36;;;;;;;21.67;11.45;;;;;;;-1.08;100.00;95712.31;1041281;28;20318;-74
2021/01/07 01:31:07;;;;;;;17.52;10.70;;;;;;;-1.08;100.00;95719.28;1029620;28;20357;-74
2021/01/07 01:31:39;;;;;;;19.60;10.95;;;;;;;-1.04;100.00;95718.97;1037105;28;20022;-74
2021/01/07 01:32:11;;;;;;;21.33;11.50;;;;;;;-1.08;100.00;95714.91;1025205;28;20043;-73
2021/01/07 01:32:42;;;;;;;19.77;11.05;;;;;;;-1.11;100.00;95706.50;1037347;28;20688;-74
2021/01/07 01:33:13;;;;;;;19.77;11.10;;;;;;;-1.07;100.00;95719.19;1037375;28;20018;-74
2021/01/07 01:33:44;;;;;;;22.00;11.80;;;;;;;-1.12;100.00;95721.28;1037017;28;20234;-74
2021/01/07 01:34:16;;;;;;;18.73;10.77;;;;;;;-1.07;100.00;95713.13;1037285;28;20029;-74
2021/01/07 01:34:47;;;;;;;21.25;10.93;;;;;;;-1.07;100.00;95715.75;1037331;28;20022;-74
2021/01/07 01:35:19;;;;;;;19.85;11.77;;;;;;;-1.02;100.00;95722.28;1037459;28;20018;-74
2021/01/07 01:35:51;;;;;;;20.85;11.52;;;;;;;-1.06;100.00;95717.38;1029167;28;20099;-74
2021/01/07 01:36:29;;;;;;;18.30;10.60;;;;;;;-1.06;100.00;95718.25;1033550;28;20019;-74
2021/01/07 01:37:07;;;;;;;19.20;11.65;;;;;;;-1.08;100.00;95717.53;1033282;28;20137;-74
2021/01/07 01:37:39;;;;;;;18.73;10.52;;;;;;;-1.07;100.00;95720.97;1032765;28;20068;-74
2021/01/07 01:38:10;;;;;;;20.02;10.73;;;;;;;-1.10;100.00;95719.38;1032731;28;20371;-73
2021/01/07 01:38:41;;;;;;;22.17;12.23;;;;;;;-1.11;100.00;95702.09;1029445;28;20138;-74
2021/01/07 01:39:14;;;;;;;17.65;10.52;;;;;;;-1.05;100.00;95719.88;1041422;28;20026;-74
2021/01/07 01:39:45;;;;;;;19.85;11.05;;;;;;;-1.09;100.00;95718.47;1025244;29;20034;-74
2021/01/07 01:40:17;;;;;;;20.88;11.02;;;;;;;-1.20;100.00;95698.38;1041219;28;20029;-73
2021/01/07 01:40:49;;;;;;;20.83;12.00;;;;;;;-1.04;100.00;95716.34;1033338;28;20074;-74
2021/01/07 01:41:21;;;;;;;22.30;11.88;;;;;;;-1.04;100.00;95718.97;1029123;28;20050;-74
2021/01/07 01:41:52;;;;;;;21.60;11.70;;;;;;;-1.12;100.00;95713.47;1037016;28;20060;-74
2021/01/07 01:42:24;;;;;;;18.45;10.43;;;;;;;-1.27;100.00;95685.91;1037065;28;20117;-73
2021/01/07 01:42:58;;;;;;;19.30;11.25;;;;;;;-1.07;100.00;95716.56;1025130;29;20511;-74
2021/01/07 01:43:29;;;;;;;20.00;11.05;;;;;;;-1.09;100.00;95715.03;1033001;28;20101;-74
2021/01/07 01:44:00;;;;;;;20.90;11.90;;;;;;;-1.06;100.00;95720.84;1029068;28;20480;-74
2021/01/07 01:44:31;;;;;;;21.45;11.27;;;;;;;-1.05;100.00;95725.09;1036935;28;20025;-74
2021/01/07 01:45:02;;;;;;;20.45;11.95;;;;;;;-1.17;100.00;95698.19;1033102;28;20032;-74
2021/01/07 01:45:34;;;;;;;19.63;11.10;;;;;;;-1.02;100.00;95718.84;1033150;28;20022;-74
2021/01/07 01:46:05;;;;;;;18.98;10.57;;;;;;;-1.00;100.00;95720.41;1033199;28;20018;-74
2021/01/07 01:46:36;;;;;;;20.10;11.20;;;;;;;-1.17;100.00;95703.38;1036921;28;20026;-74
2021/01/07 01:47:08;;;;;;;20.48;10.70;;;;;;;-1.02;100.00;95722.28;1032851;28;20069;-74
2021/01/07 01:47:40;;;;;;;17.83;10.20;;;;;;;-1.06;100.00;95710.44;1033235;28;20038;-74
2021/01/07 01:48:13;;;;;;;21.77;12.18;;;;;;;-1.11;100.00;95702.09;1037277;28;20105;-73
2021/01/07 01:48:44;;;;;;;21.45;11.52;;;;;;;-0.96;100.00;95724.47;1037223;28;20026;-73
2021/01/07 01:49:16;;;;;;;22.02;12.15;;;;;;;-1.02;100.00;95709.25;1033443;28;20049;-74
2021/01/07 01:49:56;;;;;;;22.13;11.27;;;;;;;-1.07;100.00;95713.13;1029214;28;20027;-74
2021/01/07 01:50:27;;;;;;;18.15;10.68;;;;;;;-1.19;100.00;95704.41;1041154;28;20029;-74
2021/01/07 01:50:59;;;;;;;23.90;11.82;;;;;;;-1.05;100.00;95719.88;1037551;28;20026;-74
2021/01/07 01:51:31;;;;;;;22.45;12.35;;;;;;;-1.74;100.00;95603.28;1033234;28;20018;-74
2021/01/07 01:52:02;;;;;;;21.45;12.13;;;;;;;-0.96;100.00;95721.00;1029413;28;20025;-74
2021/01/07 01:52:33;;;;;;;20.40;11.35;;;;;;;-0.93;100.00;95719.97;1037216;28;20025;-73
2021/01/07 01:53:04;;;;;;;19.40;11.30;;;;;;;-1.03;100.00;95720.63;1037099;28;20061;-74
2021/01/07 01:53:36;;;;;;;19.95;11.60;;;;;;;-1.07;100.00;95719.19;1033239;28;20061;-74
2021/01/07 01:54:07;;;;;;;19.92;11.25;;;;;;;-0.98;100.00;95717.69;1029718;28;20027;-74
2021/01/07 01:54:38;;;;;;;19.38;11.18;;;;;;;-0.98;100.00;95718.50;1037156;28;20475;-73
2021/01/07 01:55:10;;;;;;;21.67;11.80;;;;;;;-1.00;100.00;95720.41;1025297;28;20023;-74
2021/01/07 01:55:41;;;;;;;24.88;12.77;;;;;;;-1.02;100.00;95721.47;1033518;28;20023;-74
2021/01/07 01:56:12;;;;;;;19.35;11.45;;;;;;;-1.12;100.00;95715.25;1037267;28;20052;-74
2021/01/07 01:56:46;;;;;;;20.67;12.18;;;;;;;-1.14;100.00;95715.34;1033354;28;20514;-74
2021/01/07 01:57:17;;;;;;;20.35;11.50;;;;;;;-1.17;100.00;95712.97;1037202;28;20081;-74
2021/01/07 01:57:48;;;;;;;22.73;11.75;;;;;;;-1.03;100.00;95719.78;1029238;28;20081;-74
2021/01/07 01:58:19;;;;;;;22.80;12.02;;;;;;;-1.07;100.00;95723.56;1037356;28;20076;-74
2021/01/07 01:58:50;;;;;;;21.45;11.98;;;;;;;-1.35;100.00;95681.25;1037389;28;20026;-74
2021/01/07 01:59:22;;;;;;;21.58;12.13;;;;;;;-1.06;100.00;95726.06;1033276;28;20101;-73
2021/01/07 01:59:52;;;;;;;21.40;12.38;;;;;;;-1.01;100.00;95721.34;1029355;28;20038;-74
2021/01/07 02:00:23;;;;;;;20.38;11.73;;;;;;;-1.25;100.00;95679.66;1029266;28;20027;-74
2021/01/07 02:00:54;;;;;;;20.27;11.07;;;;;;;-0.95;100.00;95723.50;1033151;28;20033;-73
2021/01/07 02:01:25;;;;;;;21.10;11.88;;;;;;;-0.92;100.00;95725.06;1037275;28;20111;-74
2021/01/07 02:02:04;;;;;;;21.88;12.88;;;;;;;-0.97;100.00;95724.56;1037468;28;20104;-74
2021/01/07 02:02:35;;;;;;;20.10;11.77;;;;;;;-0.98;100.00;95722.88;1025318;29;20048;-74
2021/01/07 02:03:07;;;;;;;23.73;12.55;;;;;;;-0.97;100.00;95724.56;1033014;28;20132;-74
2021/01/07 02:03:40;;;;;;;21.55;11.85;;;;;;;-1.29;100.00;95672.97;1033395;28;20062;-74
2021/01/07 02:04:10;;;;;;;19.35;11.18;;;;;;;-1.24;100.00;95681.28;1033557;28;20050;-73
2021/01/07 02:04:41;;;;;;;20.88;11.77;;;;;;;-1.00;100.00;95724.78;1033596;28;20036;-74
2021/01/07 02:05:12;;;;;;;21.73;11.77;;;;;;;-1.06;100.00;95727.81;1033508;28;20027;-73
2021/01/07 02:05:43;;;;;;;22.45;12.85;;;;;;;-1.45;100.00;95657.63;1045740;28;20025;-74
2021/01/07 02:06:15;;;;;;;20.63;11.88;;;;;;;-1.03;100.00;95727.59;1029352;28;20070;-73
2021/01/07 02:06:45;;;;;;;19.70;10.85;;;;;;;-1.11;100.00;95715.13;1041511;28;20429;-74
2021/01/07 02:07:22;;;;;;;22.98;12.68;;;;;;;-1.03;100.00;95723.25;1036919;28;20060;-73
2021/01/07 02:07:53;;;;;;;20.02;11.63;;;;;;;-1.02;100.00;95727.50;1025739;29;20031;-74
2021/01/07 02:08:23;;;;;;;21.17;12.45;;;;;;;-1.05;100.00;95722.50;1037393;28;20038;-73
2021/01/07 02:08:54;;;;;;;18.40;11.73;;;;;;;-1.11;100.00;95722.13;1029182;28;20059;-74
2021/01/07 02:09:25;;;;;;;21.08;12.00;;;;;;;-1.08;100.00;95727.09;1033257;28;20026;-73
2021/01/07 02:09:56;;;;;;;21.15;11.82;;;;;;;-1.24;100.00;95699.53;1041540;28;20124;-74
2021/01/07 02:10:27;;;;;;;19.55;11.90;;;;;;;-1.07;100.00;95724.38;1029413;28;20161;-74
2021/01/07 02:10:58;;;;;;;20.92;11.48;;;;;;;-1.03;100.00;95723.25;1033024;28;20031;-74
2021/01/07 02:11:29;;;;;;;21.73;12.48;;;;;;;-1.19;100.00;95699.22;1033225;28;20112;-73
2021/01/07 02:12:00;;;;;;;23.15;12.20;;;;;;;-1.07;100.00;95727.00;1029338;28;20031;-74
2021/01/07 02:12:31;;;;;;;22.17;13.05;;;;;;;-1.01;100.00;95729.16;1029130;28;20023;-74
2021/01/07 02:13:02;;;;;;;22.58;12.80;;;;;;;-1.24;100.00;95676.09;1037534;28;20132;-74
2021/01/07 02:13:33;;;;;;;23.63;12.35;;;;;;;-1.12;100.00;95699.59;1028966;28;20023;-73
2021/01/07 02:14:05;;;;;;;19.35;11.68;;;;;;;-1.06;100.00;95722.59;1037402;28;20117;-73
2021/01/07 02:14:44;;;;;;;16.75;10.35;;;;;;;-1.37;100.00;95670.13;1033342;28;20033;-73
2021/01/07 02:15:15;;;;;;;22.20;12.40;;;;;;;-1.14;100.00;95702.31;1028258;28;20177;-72
2021/01/07 02:15:46;;;;;;;18.83;11.52;;;;;;;-1.07;100.00;95721.78;1031567;28;20026;-72
2021/01/07 02:16:24;;;;;;;20.45;11.73;;;;;;;-1.09;100.00;95725.44;1039921;28;20025;-72
2021/01/07 02:16:55;;;;;;;19.45;11.20;;;;;;;-1.11;100.00;95720.34;1035717;28;20018;-72
2021/01/07 02:17:25;;;;;;;22.25;12.27;;;;;;;-1.11;100.00;95725.56;1035519;28;20030;-72
2021/01/07 02:17:56;;;;;;;21.15;11.88;;;;;;;-1.20;100.00;95707.97;1035632;28;20364;-72
2021/01/07 02:18:27;;;;;;;21.95;12.77;;;;;;;-1.30;100.00;95701.78;1031901;28;20486;-72
2021/01/07 02:18:58;;;;;;;22.67;12.15;;;;;;;-1.12;100.00;95723.88;1031680;28;20018;-72
2021/01/07 02:19:28;;;;;;;21.00;12.68;;;;;;;-1.09;100.00;95723.66;1031523;28;20109;-73
2021/01/07 02:19:59;;;;;;;21.25;11.98;;;;;;;-1.08;100.00;95724.50;1039748;28;20022;-72
2021/01/07 02:20:30;;;;;;;20.50;11.77;;;;;;;-1.08;100.00;95722.75;1031721;28;20463;-73
2021/01/07 02:21:01;;;;;;;21.05;11.70;;;;;;;-1.14;100.00;95710.13;1039833;28;20067;-72
2021/01/07 02:21:39;;;;;;;22.80;12.43;;;;;;;-1.05;100.00;95722.50;1031550;28;20038;-73
2021/01/07 02:22:11;;;;;;;23.40;12.68;;;;;;;-1.05;100.00;95721.66;1031480;28;20457;-72
2021/01/07 02:22:42;;;;;;;21.10;11.77;;;;;;;-1.05;100.00;95719.88;1031609;28;20018;-72
2021/01/07 02:23:13;;;;;;;21.50;12.85;;;;;;;-1.11;100.00;95722.94;1023734;29;20027;-72
2021/01/07 02:23:51;;;;;;;18.73;11.20;;;;;;;-1.03;100.00;95722.38;1035497;28;20069;-73